Time;durP1;ratioP1;P1;durP2;ratioP2;P2;SDS_P1;SDS_P2;PMS_P1;PMS_P2;Temp;Humidity;BMP_temperature;BMP_pressure;BME280_temperature;BME280_humidity;BME280_pressure;Samples;Min_cycle;Max_cycle;Signal;HPM_P1;HPM_P2
2022/08/24 00:01:18;;;;;;;30.20;18.07;;;19.00;99.90;18.60;100719;;;;575491;246;24126;-79
2022/08/24 00:03:46;;;;;;;28.17;17.07;;;19.00;99.90;18.60;100722;;;;584390;246;24085;-79
2022/08/24 00:06:14;;;;;;;24.03;15.50;;;18.90;99.90;18.60;100711;;;;584401;246;24082;-79
2022/08/24 00:08:45;;;;;;;37.97;15.77;;;18.90;99.90;18.50;100707;;;;584481;246;24057;-79
2022/08/24 00:11:11;;;;;;;21.20;14.73;;;18.90;99.90;18.50;100697;;;;571938;246;24171;-79
2022/08/24 00:13:39;;;;;;;25.80;15.10;;;18.80;99.90;18.50;100700;;;;585370;240;24067;-78
2022/08/24 00:16:07;;;;;;;25.50;16.07;;;18.90;99.90;18.50;100692;;;;576303;246;24093;-81
2022/08/24 00:18:35;;;;;;;31.90;16.27;;;18.80;99.90;18.50;100695;;;;576027;246;24092;-80
2022/08/24 00:21:03;;;;;;;29.80;16.13;;;18.80;99.90;18.50;100680;;;;584777;245;24073;-80
2022/08/24 00:23:31;;;;;;;20.50;15.77;;;18.80;99.90;18.50;100684;;;;584558;245;24080;-79
2022/08/24 00:25:58;;;;;;;23.47;15.90;;;18.80;99.90;18.50;100675;;;;573289;246;24106;-81
2022/08/24 00:28:27;;;;;;;23.80;15.20;;;18.90;99.90;18.50;100673;;;;575693;246;24133;-81
2022/08/24 00:30:55;;;;;;;24.57;15.20;;;18.80;99.90;18.50;100679;;;;577028;246;24082;-81
2022/08/24 00:33:23;;;;;;;23.57;15.73;;;18.90;99.90;18.60;100681;;;;575505;246;24107;-81
2022/08/24 00:35:51;;;;;;;24.07;16.33;;;18.90;99.90;18.60;100683;;;;576967;246;24102;-81
2022/08/24 00:38:20;;;;;;;27.27;15.83;;;18.90;99.90;18.60;100682;;;;575396;246;24116;-80
2022/08/24 00:40:48;;;;;;;25.07;15.47;;;18.90;99.90;18.60;100685;;;;576841;244;24199;-80
2022/08/24 00:43:18;;;;;;;24.23;16.07;;;18.90;99.90;18.60;100683;;;;575326;246;24100;-79
2022/08/24 00:45:49;;;;;;;29.67;16.77;;;18.90;99.90;18.60;100680;;;;572203;245;24049;-80
2022/08/24 00:48:20;;;;;;;29.20;18.67;;;18.90;99.90;18.60;100676;;;;563030;246;24102;-80
2022/08/24 00:51:00;;;;;;;23.13;17.37;;;18.90;99.90;18.60;100667;;;;583963;246;24072;-80
2022/08/24 00:53:37;;;;;;;31.77;17.87;;;18.90;99.90;18.60;100668;;;;571233;246;24088;-80
2022/08/24 00:56:08;;;;;;;29.57;17.90;;;19.00;99.90;18.70;100671;;;;572132;246;24042;-80
2022/08/24 00:58:39;;;;;;;25.47;18.67;;;19.00;99.90;18.70;100681;;;;576548;246;24052;-80
2022/08/24 01:01:06;;;;;;;29.87;19.13;;;19.00;99.90;18.70;100683;;;;583901;246;24056;-79
2022/08/24 01:03:36;;;;;;;28.17;17.63;;;19.00;99.90;18.70;100680;;;;575228;246;24089;-80
2022/08/24 01:06:03;;;;;;;21.20;17.17;;;19.00;99.90;18.70;100671;;;;583985;246;24108;-80
2022/08/24 01:08:31;;;;;;;25.03;18.40;;;19.00;99.90;18.70;100677;;;;575339;246;24130;-80
2022/08/24 01:11:02;;;;;;;24.83;17.27;;;19.00;99.90;18.70;100661;;;;576621;246;24045;-79
2022/08/24 01:13:32;;;;;;;24.17;17.00;;;19.00;99.90;18.70;100671;;;;572436;246;24046;-80
2022/08/24 01:15:58;;;;;;;21.50;16.87;;;19.00;99.90;18.70;100669;;;;584157;245;24069;-80
2022/08/24 01:21:20;;;;;;;24.50;16.43;;;19.00;99.90;18.70;100661;;;;584543;246;24056;-80
2022/08/24 01:23:48;;;;;;;19.20;16.17;;;19.00;99.90;18.70;100659;;;;572777;244;24086;-80
2022/08/24 01:26:25;;;;;;;27.57;17.27;;;19.00;99.90;18.60;100657;;;;585675;245;24068;-81
2022/08/24 01:28:54;;;;;;;21.73;17.33;;;19.00;99.90;18.60;100659;;;;573356;246;24121;-80
2022/08/24 01:31:21;;;;;;;20.67;16.60;;;18.90;99.90;18.60;100662;;;;585038;245;24115;-80
2022/08/24 01:33:52;;;;;;;26.93;17.30;;;18.90;99.90;18.60;100658;;;;573727;243;24049;-80
2022/08/24 01:36:32;;;;;;;25.37;16.63;;;19.00;99.90;18.60;100666;;;;575726;245;24060;-79
2022/08/24 01:39:19;;;;;;;22.23;16.70;;;18.90;99.90;18.60;100670;;;;583240;245;24049;-79
2022/08/24 01:41:49;;;;;;;25.83;17.00;;;19.00;99.90;18.60;100678;;;;572859;246;24085;-80
2022/08/24 01:44:14;;;;;;;23.13;16.53;;;19.00;99.90;18.70;100683;;;;575714;245;24162;-81
2022/08/24 01:46:45;;;;;;;37.87;17.23;;;19.00;99.90;18.60;100695;;;;584801;240;24055;-80
2022/08/24 01:49:13;;;;;;;28.07;16.63;;;19.00;99.90;18.70;100703;;;;575872;246;24096;-80
2022/08/24 01:51:41;;;;;;;23.93;17.27;;;19.00;99.90;18.70;100697;;;;575845;246;24091;-80
2022/08/24 01:54:09;;;;;;;29.87;16.47;;;19.00;99.90;18.70;100699;;;;572718;246;24045;-81
2022/08/24 01:56:36;;;;;;;26.17;17.63;;;19.00;99.90;18.70;100698;;;;577216;246;24063;-81
2022/08/24 01:59:05;;;;;;;28.20;16.57;;;19.00;99.90;18.60;100702;;;;577259;246;24048;-80
2022/08/24 02:01:32;;;;;;;23.83;16.73;;;19.00;99.90;18.70;100714;;;;575544;246;24124;-79
2022/08/24 02:04:01;;;;;;;24.03;16.30;;;19.00;99.90;18.70;100707;;;;584356;246;24073;-79
2022/08/24 02:06:29;;;;;;;20.93;15.80;;;19.00;99.90;18.70;100706;;;;573099;246;24116;-80
2022/08/24 02:09:01;;;;;;;23.17;16.70;;;19.00;99.90;18.70;100705;;;;576998;244;24046;-80
2022/08/24 02:11:26;;;;;;;22.43;16.47;;;19.00;99.90;18.70;100711;;;;572784;245;24098;-80
2022/08/24 02:13:55;;;;;;;27.03;15.37;;;19.00;99.90;18.70;100709;;;;575524;246;24079;-80
2022/08/24 02:16:23;;;;;;;23.10;15.63;;;19.00;99.90;18.70;100711;;;;576950;246;24092;-79
2022/08/24 02:18:51;;;;;;;19.80;15.30;;;19.00;99.90;18.70;100706;;;;584170;245;24112;-80
2022/08/24 02:21:19;;;;;;;23.43;16.30;;;19.00;99.90;18.70;100716;;;;576554;246;24082;-80
2022/08/24 02:23:47;;;;;;;28.63;15.80;;;19.00;99.90;18.70;100709;;;;583979;246;24051;-80
2022/08/24 02:26:14;;;;;;;24.63;16.63;;;19.10;99.90;18.70;100710;;;;575271;245;24045;-80
2022/08/24 02:28:42;;;;;;;19.87;16.07;;;19.10;99.90;18.70;100712;;;;576550;246;24078;-79
2022/08/24 02:31:10;;;;;;;31.30;17.03;;;19.10;99.90;18.80;100725;;;;575277;246;24092;-81
2022/08/24 02:33:41;;;;;;;21.43;16.53;;;19.10;99.90;18.80;100720;;;;583964;241;24167;-80
2022/08/24 02:36:06;;;;;;;19.77;14.83;;;19.10;99.90;18.70;100706;;;;577801;245;24069;-80
2022/08/24 02:38:34;;;;;;;31.47;16.97;;;19.10;99.90;18.70;100712;;;;573529;246;24080;-80
2022/08/24 02:41:02;;;;;;;26.10;16.07;;;19.10;99.90;18.70;100716;;;;576451;245;24059;-81
2022/08/24 02:43:31;;;;;;;21.03;15.97;;;19.10;99.90;18.70;100717;;;;577738;244;24127;-81
2022/08/24 02:45:59;;;;;;;28.30;16.23;;;19.10;99.90;18.70;100714;;;;576157;245;24096;-80
2022/08/24 02:48:32;;;;;;;25.23;15.60;;;19.00;99.90;18.70;100712;;;;577499;246;24073;-80
2022/08/24 02:50:57;;;;;;;22.60;15.37;;;19.00;99.90;18.70;100717;;;;575768;246;24041;-80
2022/08/24 02:53:25;;;;;;;25.63;16.70;;;19.00;99.90;18.60;100722;;;;576072;246;24101;-80
2022/08/24 02:55:54;;;;;;;22.10;15.50;;;18.90;99.90;18.60;100726;;;;577192;246;24151;-80
2022/08/24 02:58:23;;;;;;;25.03;15.43;;;18.90;99.90;18.50;100719;;;;577250;246;24102;-79
2022/08/24 03:00:51;;;;;;;19.10;15.13;;;18.80;99.90;18.50;100723;;;;577258;240;24055;-80
2022/08/24 03:03:20;;;;;;;19.33;14.33;;;18.80;99.90;18.50;100729;;;;577257;246;24053;-80
2022/08/24 03:05:49;;;;;;;22.23;15.10;;;18.80;99.90;18.40;100731;;;;577243;246;24092;-80
2022/08/24 03:08:17;;;;;;;20.67;15.73;;;18.80;99.90;18.40;100736;;;;577223;246;24079;-80
2022/08/24 03:10:45;;;;;;;20.57;14.33;;;18.70;99.90;18.30;100733;;;;577192;246;24086;-80
2022/08/24 03:13:13;;;;;;;21.40;14.77;;;18.70;99.90;18.30;100743;;;;576936;246;24055;-79
2022/08/24 03:15:41;;;;;;;18.30;14.60;;;18.70;99.90;18.30;100749;;;;584454;246;24142;-80
2022/08/24 03:18:08;;;;;;;18.67;14.87;;;18.70;99.90;18.30;100745;;;;577119;246;24138;-79
2022/08/24 03:20:36;;;;;;;26.08;20.52;;;18.60;99.90;18.30;100750;;;;578981;246;35308;-78
2022/08/24 03:23:04;;;;;;;24.20;15.43;;;18.60;99.90;18.30;100755;;;;584456;246;24083;-80
2022/08/24 03:25:32;;;;;;;21.33;14.90;;;18.60;99.90;18.30;100757;;;;576516;246;24052;-80
2022/08/24 03:28:01;;;;;;;22.17;14.03;;;18.60;99.90;18.30;100756;;;;576528;246;23111;-80
2022/08/24 03:30:29;;;;;;;21.23;14.37;;;18.60;99.90;18.20;100764;;;;575215;246;24108;-80
2022/08/24 03:32:58;;;;;;;22.60;14.03;;;18.50;99.90;18.20;100762;;;;576460;244;24068;-80
2022/08/24 03:35:27;;;;;;;16.83;14.47;;;18.50;99.90;18.20;100759;;;;576925;246;24061;-80
2022/08/24 03:37:55;;;;;;;23.60;14.73;;;18.50;99.90;18.20;100763;;;;577092;244;24076;-81
2022/08/24 03:40:24;;;;;;;22.57;13.50;;;18.50;99.90;18.20;100759;;;;584426;241;24114;-81
2022/08/24 03:42:52;;;;;;;23.93;14.27;;;18.50;99.90;18.20;100763;;;;576977;246;24059;-81
2022/08/24 03:45:20;;;;;;;20.47;14.30;;;18.50;99.90;18.20;100761;;;;577007;246;24054;-79
2022/08/24 03:47:48;;;;;;;18.53;14.03;;;18.50;99.90;18.20;100765;;;;585297;240;24043;-80
2022/08/24 03:50:17;;;;;;;16.43;14.03;;;18.50;99.90;18.20;100769;;;;578206;246;24075;-82
2022/08/24 03:52:49;;;;;;;26.17;14.03;;;18.50;99.90;18.20;100771;;;;576543;246;24108;-81
2022/08/24 03:55:14;;;;;;;17.00;13.63;;;18.60;99.90;18.20;100778;;;;577844;246;24090;-80
2022/08/24 03:57:43;;;;;;;17.23;13.53;;;18.70;99.90;18.30;100783;;;;576171;245;24080;-81
2022/08/24 04:00:12;;;;;;;19.00;14.00;;;18.70;99.90;18.40;100778;;;;576137;246;24079;-82
2022/08/24 04:02:39;;;;;;;22.17;14.13;;;18.70;99.90;18.50;100770;;;;577556;246;24091;-80
2022/08/24 04:05:11;;;;;;;26.33;15.97;;;18.80;99.90;18.50;100770;;;;577370;246;24061;-80
2022/08/24 04:07:35;;;;;;;22.23;15.13;;;18.80;99.90;18.60;100781;;;;584346;245;24088;-80
2022/08/24 04:10:06;;;;;;;22.40;15.53;;;18.90;99.90;18.60;100773;;;;577217;246;24046;-79
2022/08/24 04:12:31;;;;;;;23.97;14.87;;;19.00;99.90;18.70;100780;;;;575608;246;24056;-80
2022/08/24 04:15:00;;;;;;;24.50;15.53;;;19.10;99.90;18.70;100780;;;;577194;246;24049;-79
2022/08/24 04:17:29;;;;;;;21.60;14.50;;;19.10;99.90;18.70;100770;;;;577302;246;24118;-80
2022/08/24 04:19:57;;;;;;;22.93;15.97;;;19.10;99.90;18.80;100774;;;;575872;246;24056;-81
2022/08/24 04:22:25;;;;;;;29.63;16.20;;;19.10;99.90;18.80;100774;;;;584452;245;25176;-80
2022/08/24 04:24:53;;;;;;;20.67;15.60;;;19.10;99.90;18.80;100772;;;;583903;243;24070;-81
2022/08/24 04:27:21;;;;;;;24.73;16.33;;;19.20;99.90;18.80;100773;;;;575392;246;24105;-81
2022/08/24 04:29:49;;;;;;;23.33;15.47;;;19.20;99.90;18.90;100771;;;;575235;246;24092;-79
2022/08/24 04:32:17;;;;;;;22.23;16.27;;;19.20;99.90;18.90;100782;;;;576632;246;24103;-79
2022/08/24 04:34:45;;;;;;;26.13;17.13;;;19.20;99.90;19.00;100778;;;;576944;246;24068;-80
2022/08/24 04:37:13;;;;;;;23.97;16.40;;;19.30;99.90;19.00;100779;;;;583848;246;24106;-81
2022/08/24 04:39:41;;;;;;;24.67;17.13;;;19.40;99.90;19.00;100772;;;;575195;246;24067;-81
2022/08/24 04:42:10;;;;;;;32.23;17.57;;;19.40;99.90;19.10;100787;;;;576531;246;24063;-82
2022/08/24 04:44:39;;;;;;;24.83;17.43;;;19.50;99.90;19.20;100782;;;;576417;244;24044;-82
2022/08/24 04:47:08;;;;;;;31.73;18.37;;;19.60;99.90;19.20;100789;;;;575213;246;24105;-81
2022/08/24 04:49:37;;;;;;;29.00;18.60;;;19.70;99.90;19.40;100791;;;;576539;246;24095;-82
2022/08/24 04:52:06;;;;;;;29.63;20.00;;;19.80;99.90;19.50;100789;;;;575211;245;24080;-81
2022/08/24 04:54:34;;;;;;;35.77;20.63;;;20.00;99.90;19.70;100796;;;;576601;246;24065;-81
2022/08/24 04:57:02;;;;;;;29.87;19.73;;;20.10;99.90;19.80;100791;;;;584196;241;24089;-82
2022/08/24 04:59:30;;;;;;;27.33;18.77;;;20.00;99.90;19.90;100791;;;;577593;244;23127;-82
2022/08/24 05:01:58;;;;;;;29.27;18.60;;;20.20;99.90;20.00;100799;;;;577654;244;24032;-82
2022/08/24 05:04:27;;;;;;;35.80;19.00;;;20.40;99.90;20.10;100797;;;;577572;246;23069;-81
2022/08/24 05:06:55;;;;;;;31.97;19.00;;;20.50;99.90;20.20;100799;;;;577318;246;24109;-81
2022/08/24 05:09:23;;;;;;;27.40;17.80;;;20.50;99.90;20.20;100799;;;;577249;246;23070;-81
2022/08/24 05:11:52;;;;;;;27.97;19.27;;;20.50;99.90;20.30;100801;;;;577059;246;23100;-81
2022/08/24 05:14:19;;;;;;;29.03;18.93;;;20.60;99.90;20.30;100804;;;;577323;245;24029;-81
2022/08/24 05:16:47;;;;;;;28.13;17.77;;;20.60;99.90;20.40;100806;;;;577067;240;23157;-80
2022/08/24 05:19:15;;;;;;;24.17;17.50;;;20.70;99.90;20.50;100807;;;;576753;246;24150;-82
2022/08/24 05:21:43;;;;;;;29.87;17.13;;;20.80;99.90;20.60;100810;;;;577078;246;24066;-81
2022/08/24 05:24:11;;;;;;;30.60;18.30;;;20.80;99.90;20.60;100815;;;;584738;245;24047;-82
2022/08/24 05:26:40;;;;;;;27.23;17.30;;;21.00;99.90;20.70;100809;;;;577285;246;24087;-80
2022/08/24 05:29:08;;;;;;;26.80;17.10;;;21.10;99.90;20.80;100810;;;;577137;246;23093;-80
2022/08/24 05:31:37;;;;;;;24.47;15.87;;;21.30;99.90;21.00;100815;;;;577065;246;23073;-80
2022/08/24 05:34:06;;;;;;;27.73;15.13;;;21.40;99.90;21.10;100817;;;;584745;245;23078;-80
2022/08/24 05:36:34;;;;;;;20.13;14.80;;;21.30;99.90;21.10;100820;;;;576531;245;24073;-81
2022/08/24 05:39:01;;;;;;;19.23;14.23;;;21.40;99.90;21.20;100817;;;;584158;246;24191;-81
2022/08/24 05:41:30;;;;;;;25.37;14.10;;;21.70;99.90;21.40;100812;;;;583995;244;24106;-81
2022/08/24 05:43:59;;;;;;;21.93;13.73;;;21.80;99.90;21.50;100817;;;;576956;246;24163;-81
2022/08/24 05:46:30;;;;;;;17.60;13.20;;;22.00;99.90;21.70;100819;;;;575243;246;24103;-79
2022/08/24 05:49:00;;;;;;;18.53;11.53;;;22.00;99.90;21.90;100823;;;;583641;245;24076;-80
2022/08/24 05:51:24;;;;;;;20.73;12.00;;;22.20;99.90;21.90;100823;;;;575124;246;24053;-80
2022/08/24 05:53:52;;;;;;;18.93;10.60;;;22.30;99.90;21.90;100824;;;;584000;241;24060;-81
2022/08/24 05:56:20;;;;;;;18.03;10.57;;;22.30;99.90;21.90;100827;;;;575241;246;24124;-81
2022/08/24 05:58:49;;;;;;;15.83;10.00;;;22.40;99.90;21.90;100824;;;;576581;246;24030;-81
2022/08/24 06:01:16;;;;;;;20.37;10.10;;;22.40;99.90;22.00;100822;;;;572657;246;24078;-81
2022/08/24 06:03:44;;;;;;;16.93;9.40;;;22.50;99.90;22.00;100822;;;;583836;246;24097;-81
2022/08/24 06:06:16;;;;;;;18.47;9.10;;;22.50;99.90;22.20;100830;;;;572692;246;24058;-81
2022/08/24 06:08:40;;;;;;;14.73;8.73;;;22.70;99.90;22.30;100834;;;;583745;245;24069;-80
2022/08/24 06:11:08;;;;;;;13.07;9.03;;;22.80;99.90;22.40;100833;;;;576132;245;24092;-80
2022/08/24 06:13:36;;;;;;;16.70;8.83;;;22.90;99.90;22.50;100839;;;;585381;245;24067;-80
2022/08/24 06:16:10;;;;;;;14.80;8.23;;;22.90;99.90;22.60;100833;;;;577457;246;24048;-80
2022/08/24 06:18:41;;;;;;;15.17;8.00;;;23.00;99.90;22.70;100830;;;;573457;246;24127;-80
2022/08/24 06:21:12;;;;;;;14.60;8.03;;;23.40;99.90;22.90;100844;;;;575368;246;24079;-80
2022/08/24 06:23:43;;;;;;;18.27;8.00;;;23.30;99.90;23.30;100838;;;;573084;246;24107;-81
2022/08/24 06:28:57;;;;;;;10.47;6.27;;;24.30;99.90;23.80;100844;;;;573470;246;24057;-80
2022/08/24 06:31:26;;;;;;;18.67;7.73;;;24.30;99.90;24.00;100839;;;;572748;246;24077;-80
2022/08/24 06:33:50;;;;;;;12.47;7.17;;;24.40;99.90;24.10;100838;;;;572911;246;24083;-80
2022/08/24 06:36:18;;;;;;;11.43;6.27;;;24.50;99.90;24.10;100838;;;;575832;245;23077;-80
2022/08/24 06:38:49;;;;;;;10.47;7.00;;;24.60;99.90;23.90;100833;;;;573319;246;24099;-80
2022/08/24 06:41:14;;;;;;;10.57;6.50;;;24.50;99.90;23.70;100830;;;;575692;246;23087;-80
2022/08/24 06:43:42;;;;;;;14.87;6.80;;;24.20;99.90;23.70;100834;;;;575357;246;24115;-80
2022/08/24 06:46:10;;;;;;;15.30;7.10;;;24.20;99.90;23.80;100832;;;;572064;246;35176;-80
2022/08/24 06:48:38;;;;;;;14.43;6.87;;;24.30;99.90;23.70;100836;;;;576884;246;23082;-79
2022/08/24 06:51:09;;;;;;;14.20;6.90;;;24.10;99.90;23.70;100839;;;;576931;246;24107;-80
2022/08/24 06:53:37;;;;;;;14.93;6.93;;;24.10;99.90;23.70;100843;;;;573013;246;24104;-80
2022/08/24 06:56:08;;;;;;;12.67;6.10;;;24.10;99.90;23.70;100843;;;;576909;246;23081;-80
2022/08/24 06:58:32;;;;;;;7.33;6.17;;;24.10;99.90;23.70;100852;;;;583950;246;24096;-79
2022/08/24 07:01:12;;;;;;;15.83;6.27;;;24.20;99.90;23.70;100860;;;;584381;246;23096;-81
2022/08/24 07:03:40;;;;;;;11.73;6.20;;;24.20;99.90;23.60;100856;;;;572987;246;23100;-81
2022/08/24 07:06:08;;;;;;;10.07;6.37;;;24.00;99.90;23.40;100854;;;;584451;245;24106;-80
2022/08/24 07:08:37;;;;;;;13.73;7.00;;;23.80;99.90;23.20;100848;;;;576896;244;24176;-81
2022/08/24 07:11:06;;;;;;;10.77;5.70;;;23.60;99.90;23.00;100854;;;;573087;246;24075;-81
2022/08/24 07:13:35;;;;;;;12.47;6.70;;;23.50;99.90;23.00;100861;;;;577036;245;24108;-81
2022/08/24 07:16:03;;;;;;;10.10;6.60;;;23.40;99.90;23.10;100862;;;;576940;244;24068;-82
2022/08/24 07:18:30;;;;;;;12.27;6.50;;;23.50;99.90;23.30;100859;;;;576964;244;24091;-81
2022/08/24 07:21:02;;;;;;;11.30;6.30;;;23.90;99.90;23.50;100855;;;;576923;245;24061;-82
2022/08/24 07:23:30;;;;;;;17.27;6.97;;;23.90;99.90;23.80;100862;;;;585915;243;24148;-80
2022/08/24 07:25:58;;;;;;;14.07;6.63;;;24.10;99.90;24.00;100871;;;;578013;246;24091;-81
2022/08/24 07:28:27;;;;;;;10.90;6.17;;;24.40;99.90;24.00;100876;;;;576249;245;24056;-82
2022/08/24 07:30:55;;;;;;;9.57;5.83;;;24.40;99.90;23.90;100869;;;;577229;245;24084;-81
2022/08/24 07:33:23;;;;;;;17.47;5.97;;;24.30;99.90;23.80;100868;;;;577269;246;24065;-81
2022/08/24 07:35:50;;;;;;;13.80;6.67;;;24.30;99.90;23.80;100878;;;;577069;246;23104;-80
2022/08/24 07:38:21;;;;;;;8.30;5.63;;;24.20;99.90;23.80;100877;;;;577430;244;24085;-81
2022/08/24 07:40:49;;;;;;;13.77;6.03;;;24.20;99.90;23.80;100885;;;;573306;246;24067;-80
2022/08/24 07:43:20;;;;;;;14.30;6.37;;;24.20;99.90;23.80;100882;;;;573503;245;24040;-81
2022/08/24 07:45:45;;;;;;;6.77;5.77;;;24.30;99.90;23.90;100883;;;;573163;246;23103;-81
2022/08/24 07:48:16;;;;;;;18.37;7.50;;;24.30;99.90;23.90;100888;;;;577222;246;23101;-81
2022/08/24 07:50:41;;;;;;;14.57;6.43;;;24.30;99.90;24.00;100877;;;;573193;246;24144;-80
2022/08/24 07:53:09;;;;;;;8.70;6.03;;;24.40;99.90;24.20;100886;;;;577286;246;24038;-81
2022/08/24 07:55:37;;;;;;;11.87;6.00;;;24.60;99.90;24.50;100884;;;;573399;246;23067;-80
2022/08/24 07:58:04;;;;;;;10.23;5.53;;;24.90;99.90;24.90;100890;;;;577172;246;23069;-80
2022/08/24 08:00:32;;;;;;;10.20;5.23;;;25.20;99.90;25.30;100894;;;;575627;246;24144;-79
2022/08/24 08:03:03;;;;;;;12.43;5.23;;;25.60;99.90;25.70;100891;;;;576977;246;23076;-81
2022/08/24 08:05:28;;;;;;;12.87;5.87;;;26.00;99.90;26.10;100900;;;;577034;246;23090;-81
2022/08/24 08:07:56;;;;;;;8.37;5.27;;;26.40;99.90;26.40;100893;;;;576926;246;23123;-81
2022/08/24 08:10:24;;;;;;;9.53;5.53;;;26.80;99.90;26.70;100900;;;;576636;246;23074;-80
2022/08/24 08:12:53;;;;;;;8.40;4.93;;;27.40;99.90;27.00;100894;;;;576510;246;23075;-82
2022/08/24 08:15:21;;;;;;;10.33;4.57;;;27.40;99.90;27.50;100901;;;;576565;246;24113;-81
2022/08/24 08:17:49;;;;;;;8.10;4.60;;;27.90;99.90;28.00;100897;;;;576573;246;23066;-81
2022/08/24 08:20:16;;;;;;;11.10;5.03;;;28.40;99.90;28.40;100898;;;;576678;244;23059;-79
2022/08/24 08:25:30;;;;;;;12.35;5.12;;;29.00;99.90;28.80;100900;;;;573098;246;24145;-80
2022/08/24 08:27:58;;;;;;;10.52;4.57;;;29.20;99.90;28.90;100907;;;;575195;246;24068;-80
2022/08/24 08:30:27;;;;;;;13.30;4.95;;;29.50;99.90;29.10;100904;;;;572522;246;23098;-81
2022/08/24 08:32:56;;;;;;;12.00;5.03;;;29.80;99.90;29.50;100902;;;;571468;246;35220;-81
2022/08/24 08:35:25;;;;;;;7.70;4.30;;;29.90;99.90;29.60;100899;;;;577989;245;23112;-80
2022/08/24 08:37:52;;;;;;;10.73;5.05;;;29.90;99.90;29.90;100901;;;;577961;245;23077;-81
2022/08/24 08:40:44;;;;;;;16.08;5.22;;;30.30;99.90;31.00;100899;;;;577789;246;23078;-81
2022/08/24 08:43:31;;;;;;;14.45;4.47;;;31.20;99.90;31.60;100907;;;;576247;246;23070;-79
2022/08/24 08:46:22;;;;;;;11.23;4.87;;;32.00;99.90;31.70;100914;;;;577560;245;24128;-80
2022/08/24 08:49:01;;;;;;;13.50;4.25;;;32.10;99.90;32.90;100915;;;;576085;246;23121;-79
2022/08/24 08:51:47;;;;;;;11.43;5.22;;;33.10;99.90;34.30;100915;;;;573369;246;26243;-80
2022/08/24 08:54:52;;;;;;;15.43;4.90;;;34.50;99.90;35.00;100925;;;;573346;246;23096;-80
2022/08/24 08:57:41;;;;;;;9.90;3.97;;;35.40;99.90;35.20;100921;;;;576978;245;23113;-80
2022/08/24 09:00:19;;;;;;;12.75;4.10;;;35.70;97.90;35.30;100920;;;;564164;254;23167;-82
2022/08/24 09:03:39;;;;;;;9.63;4.43;;;35.80;96.10;35.00;100916;;;;551184;255;24161;-81
2022/08/24 09:06:18;;;;;;;12.63;4.68;;;35.70;95.90;34.30;100926;;;;563160;249;23152;-82
2022/08/24 09:09:11;;;;;;;7.20;4.40;;;35.10;96.40;33.80;100921;;;;563927;254;23131;-80
2022/08/24 09:12:06;;;;;;;8.68;4.28;;;34.50;96.40;35.40;100929;;;;555573;254;23178;-81
2022/08/24 09:15:04;;;;;;;11.10;4.30;;;36.80;91.80;36.50;100923;;;;552495;254;24194;-80
2022/08/24 09:17:54;;;;;;;7.53;3.87;;;36.80;91.80;37.80;100931;;;;552633;254;23153;-81
2022/08/24 09:20:52;;;;;;;11.57;4.72;;;38.00;88.00;38.00;100924;;;;555273;254;23159;-79
2022/08/24 09:23:44;;;;;;;11.40;4.30;;;38.60;83.20;39.40;100924;;;;555710;253;23168;-82
2022/08/24 09:26:31;;;;;;;7.62;3.87;;;39.90;78.40;40.70;100924;;;;552399;254;23148;-79
2022/08/24 09:29:10;;;;;;;8.20;4.07;;;41.20;73.80;42.50;100920;;;;555341;254;24214;-83
2022/08/24 09:31:57;;;;;;;8.43;4.37;;;43.00;63.50;42.90;100917;;;;551204;254;23187;-81
2022/08/24 09:35:08;;;;;;;10.13;4.50;;;43.40;59.90;41.90;100919;;;;560588;249;23102;-82
2022/08/24 09:37:51;;;;;;;10.82;6.40;;;43.40;59.30;43.10;100921;;;;557464;251;23174;-82
2022/08/24 09:40:37;;;;;;;9.00;3.35;;;43.90;57.30;44.60;100929;;;;569368;250;23167;-80
2022/08/24 09:43:30;;;;;;;8.40;3.37;;;45.30;55.60;45.30;100924;;;;562544;250;23163;-82
2022/08/24 09:46:37;;;;;;;9.25;4.18;;;46.30;52.70;43.80;100928;;;;568348;245;35370;-80
2022/08/24 09:49:30;;;;;;;11.27;4.28;;;45.70;52.20;41.70;100932;;;;573865;245;23148;-81
2022/08/24 09:52:35;;;;;;;13.82;4.32;;;43.80;54.60;40.10;100930;;;;574724;246;23058;-79
2022/08/24 09:55:51;;;;;;;9.77;4.20;;;42.00;57.30;39.30;100932;;;;571022;247;23110;-82
2022/08/24 09:58:53;;;;;;;9.07;3.80;;;40.60;59.80;40.70;100931;;;;566834;249;23090;-80
2022/08/24 10:01:49;;;;;;;11.88;4.25;;;41.20;58.40;42.70;100934;;;;564188;249;23118;-85
2022/08/24 10:04:22;;;;;;;10.73;4.32;;;43.10;56.10;44.50;100926;;;;562377;250;23110;-79
2022/08/24 10:07:05;;;;;;;8.35;3.70;;;45.00;53.00;45.30;100930;;;;562602;250;23167;-84
2022/08/24 10:10:33;;;;;;;10.23;3.90;;;46.40;50.70;45.50;100933;;;;570618;246;23131;-84
2022/08/24 10:13:10;;;;;;;5.97;3.72;;;46.70;49.90;45.30;100926;;;;561693;249;24163;-80
2022/08/24 10:15:42;;;;;;;8.15;4.00;;;46.70;49.90;44.00;100928;;;;562430;250;23110;-82
2022/08/24 10:18:27;;;;;;;10.45;4.03;;;45.80;50.30;42.50;100928;;;;570380;250;23099;-85
2022/08/24 10:21:37;;;;;;;14.82;4.40;;;44.30;51.50;41.20;100935;;;;572672;250;24181;-83
2022/08/24 10:24:39;;;;;;;17.92;4.93;;;42.70;54.00;39.50;100930;;;;570404;251;23127;-80
2022/08/24 10:27:17;;;;;;;8.88;4.05;;;41.00;57.20;38.20;100941;;;;571612;246;23092;-82
2022/08/24 10:30:10;;;;;;;7.57;3.55;;;39.40;58.50;37.20;100942;;;;571303;251;23165;-81
2022/08/24 10:33:12;;;;;;;;;;;;;;;;;;;;;
2022/08/24 10:35:41;;;;;;;10.55;4.12;;;37.20;64.20;35.30;100946;;;;572210;251;23130;-81
2022/08/24 10:42:06;;;;;;;9.57;4.22;;;35.50;68.30;33.50;100952;;;;555215;254;23241;-82
2022/08/24 10:44:43;;;;;;;8.60;4.12;;;34.40;72.60;33.10;100952;;;;542863;260;23175;-81
2022/08/24 10:47:25;;;;;;;9.25;4.60;;;33.70;74.50;32.50;100947;;;;551147;260;23200;-78
2022/08/24 10:50:24;;;;;;;9.98;4.53;;;33.10;76.80;32.00;100942;;;;551338;259;23200;-79
2022/08/24 10:53:13;;;;;;;8.23;4.40;;;32.50;78.50;31.40;100950;;;;543440;260;23182;-79
2022/08/24 10:55:42;;;;;;;7.65;4.57;;;31.40;84.10;30.80;100949;;;;543257;260;23167;-79
2022/08/24 10:58:43;;;;;;;9.50;4.80;;;31.30;84.00;30.20;100949;;;;552843;258;23177;-78
2022/08/24 11:01:23;;;;;;;21.80;4.68;;;30.70;86.80;29.80;100956;;;;552002;256;23160;-77
2022/08/24 11:04:03;;;;;;;11.48;4.47;;;30.20;90.30;29.50;100962;;;;544165;259;24165;-79
2022/08/24 11:06:37;;;;;;;11.55;4.22;;;29.80;91.10;29.10;100947;;;;544182;259;23245;-80
2022/08/24 11:09:08;;;;;;;13.05;4.37;;;29.30;93.30;28.80;100953;;;;563965;254;23167;-79
2022/08/24 11:11:39;;;;;;;9.60;5.20;;;29.20;93.30;28.70;100955;;;;552073;256;24073;-81
2022/08/24 11:14:16;;;;;;;8.07;4.57;;;29.00;94.90;28.50;100951;;;;561842;255;23225;-80
2022/08/24 11:16:44;;;;;;;10.00;4.47;;;28.70;98.30;28.40;100964;;;;553142;255;23162;-80
2022/08/24 11:19:13;;;;;;;10.57;4.57;;;28.60;99.40;28.30;100964;;;;553103;255;23247;-80
2022/08/24 11:21:50;;;;;;;12.57;4.53;;;28.60;99.10;28.20;100963;;;;553281;255;23157;-79
2022/08/24 11:24:18;;;;;;;8.03;4.13;;;28.50;99.90;28.10;100954;;;;552570;255;23161;-80
2022/08/24 11:27:01;;;;;;;3.90;3.30;;;28.40;99.90;28.10;100958;;;;553421;255;23169;-81
2022/08/24 11:29:47;;;;;;;8.33;4.00;;;28.40;99.90;27.90;100959;;;;552946;255;24158;-80
2022/08/24 11:32:43;;;;;;;10.60;4.47;;;28.30;99.90;27.80;100960;;;;552874;255;23168;-80
2022/08/24 11:35:35;;;;;;;8.10;3.47;;;28.20;99.90;27.50;100963;;;;552861;255;23182;-79
2022/08/24 11:38:05;;;;;;;7.07;3.30;;;28.00;99.90;27.30;100970;;;;552602;255;23183;-81